createdAt,value
2019-04-21T00:00:39.574Z,7.23
2019-04-21T00:03:37.832Z,4.07
2019-04-21T00:06:48.074Z,3.70
2019-04-21T00:12:54.778Z,4.47
2019-04-21T00:15:46.378Z,5.93
2019-04-21T00:18:50.609Z,5.80
2019-04-21T00:21:50.970Z,4.20
2019-04-21T00:25:04.288Z,4.43
2019-04-21T00:28:13.973Z,4.40
2019-04-21T00:31:12.819Z,4.20
2019-04-21T00:33:56.709Z,3.70
2019-04-21T00:37:09.449Z,3.70
2019-04-21T00:40:22.233Z,4.20
2019-04-21T00:43:21.185Z,4.07
2019-04-21T00:46:17.494Z,3.80
2019-04-21T00:49:24.331Z,3.70
2019-04-21T00:52:58.094Z,3.60
2019-04-21T00:56:01.511Z,3.90
2019-04-21T00:58:59.573Z,4.10
2019-04-21T01:02:00.282Z,3.97
2019-04-21T01:05:04.801Z,4.07
2019-04-21T01:08:04.944Z,3.83
2019-04-21T01:11:01.829Z,4.17
2019-04-21T01:14:11.974Z,4.47
2019-04-21T01:17:17.865Z,3.70
2019-04-21T01:20:10.450Z,4.27
2019-04-21T01:22:58.414Z,4.00
2019-04-21T01:26:13.742Z,3.70
2019-04-21T01:29:22.817Z,4.20
2019-04-21T01:32:29.214Z,4.00
2019-04-21T01:35:25.446Z,4.00
2019-04-21T01:38:34.260Z,4.10
2019-04-21T01:41:55.413Z,3.90
2019-04-21T01:47:37.490Z,4.53
2019-04-21T01:50:39.307Z,4.60
2019-04-21T01:54:03.281Z,4.50
2019-04-21T02:00:10.424Z,5.10
2019-04-21T02:03:45.382Z,4.20
2019-04-21T02:06:27.649Z,4.47
2019-04-21T02:09:27.363Z,4.00
2019-04-21T02:12:34.595Z,4.00
2019-04-21T02:15:36.084Z,4.00
2019-04-21T02:18:33.386Z,4.20
2019-04-21T02:21:31.963Z,4.23
2019-04-21T02:27:42.964Z,4.23
2019-04-21T02:40:04.286Z,5.00
2019-04-21T02:49:13.057Z,5.17
2019-04-21T02:58:44.077Z,4.43
2019-04-21T03:01:50.293Z,4.73
2019-04-21T03:05:15.563Z,4.47
2019-04-21T03:07:55.457Z,4.70
2019-04-21T03:10:43.343Z,5.63
2019-04-21T03:13:57.346Z,4.97
2019-04-21T03:16:55.234Z,4.87
2019-04-21T03:20:00.375Z,4.23
2019-04-21T03:23:07.802Z,4.20
2019-04-21T03:26:14.332Z,4.80
2019-04-21T03:29:11.954Z,4.73
2019-04-21T03:35:53.477Z,4.53
2019-04-21T03:38:19.045Z,4.50
2019-04-21T03:41:23.651Z,4.47
2019-04-21T03:44:28.328Z,4.27
2019-04-21T03:50:29.661Z,4.83
2019-04-21T03:53:46.461Z,4.90
2019-04-21T03:56:52.449Z,4.63
2019-04-21T03:59:40.645Z,4.40
2019-04-21T04:02:42.722Z,4.30
2019-04-21T04:05:59.510Z,4.67
2019-04-21T04:09:09.558Z,5.00
2019-04-21T04:14:53.057Z,4.93
2019-04-21T04:17:54.559Z,4.63
2019-04-21T04:21:04.473Z,4.80
2019-04-21T04:24:28.483Z,5.00
2019-04-21T04:27:07.916Z,4.70
2019-04-21T04:30:26.596Z,5.67
2019-04-21T04:33:10.561Z,5.20
2019-04-21T04:39:36.643Z,4.80
2019-04-21T04:42:31.625Z,5.23
2019-04-21T04:48:31.782Z,5.13
2019-04-21T04:51:50.000Z,5.20
2019-04-21T04:57:49.102Z,4.67
2019-04-21T05:00:43.123Z,4.83
2019-04-21T05:03:50.933Z,5.20
2019-04-21T05:06:56.334Z,5.50
2019-04-21T05:09:50.463Z,5.40
2019-04-21T05:12:46.110Z,5.97
2019-04-21T05:15:55.032Z,6.87
2019-04-21T05:19:04.245Z,7.90
2019-04-21T05:21:55.267Z,7.80
2019-04-21T05:24:52.651Z,6.17
2019-04-21T05:27:49.475Z,6.50
2019-04-21T05:31:17.977Z,7.07
2019-04-21T05:34:22.114Z,6.73
2019-04-21T05:37:25.657Z,6.83
2019-04-21T05:40:22.160Z,6.07
2019-04-21T05:43:32.496Z,5.77
2019-04-21T05:46:46.774Z,5.67
2019-04-21T05:49:38.712Z,5.60
2019-04-21T05:52:53.511Z,6.00
2019-04-21T05:56:15.986Z,5.30
2019-04-21T05:59:07.956Z,6.10
2019-04-21T06:02:18.443Z,6.17
2019-04-21T06:05:23.190Z,5.73
2019-04-21T06:08:23.510Z,6.13
2019-04-21T06:14:23.388Z,5.60
2019-04-21T06:17:33.135Z,5.50
2019-04-21T06:20:28.677Z,5.73
2019-04-21T06:23:30.290Z,5.57
2019-04-21T06:26:50.385Z,6.30
2019-04-21T06:29:26.545Z,6.30
2019-04-21T06:35:59.780Z,5.70
2019-04-21T06:41:57.194Z,5.43
2019-04-21T06:45:07.216Z,5.23
2019-04-21T06:48:06.197Z,5.73
2019-04-21T06:51:13.753Z,4.93
2019-04-21T06:54:11.424Z,5.33
2019-04-21T06:57:08.769Z,5.80
2019-04-21T07:00:11.813Z,5.37
2019-04-21T07:06:12.710Z,5.00
2019-04-21T07:09:25.527Z,5.03
2019-04-21T07:12:18.804Z,5.23
2019-04-21T07:15:24.895Z,5.43
2019-04-21T07:18:27.535Z,5.63
2019-04-21T07:21:32.549Z,5.20
2019-04-21T07:24:31.984Z,5.27
2019-04-21T07:27:35.154Z,4.47
2019-04-21T07:30:37.123Z,4.97
2019-04-21T07:36:50.910Z,5.00
2019-04-21T07:39:42.155Z,4.87
2019-04-21T07:42:42.920Z,4.20
2019-04-21T07:45:40.996Z,4.50
2019-04-21T07:48:49.802Z,5.07
2019-04-21T07:52:05.993Z,4.53
2019-04-21T07:55:12.620Z,4.30
2019-04-21T07:58:02.915Z,4.37
2019-04-21T08:01:09.511Z,4.80
2019-04-21T08:04:16.500Z,4.57
2019-04-21T08:07:15.004Z,3.90
2019-04-21T08:10:10.498Z,4.30
2019-04-21T08:13:18.817Z,3.83
2019-04-21T08:16:17.513Z,3.47
2019-04-21T08:19:20.522Z,3.52
2019-04-21T08:22:25.697Z,4.22
2019-04-21T08:25:27.234Z,3.55
2019-04-21T08:28:35.451Z,3.67
2019-04-21T08:31:46.933Z,3.80
2019-04-21T08:34:29.437Z,3.83
2019-04-21T08:37:27.488Z,3.72
2019-04-21T08:40:41.970Z,3.50
2019-04-21T08:43:43.068Z,3.98
2019-04-21T08:46:42.588Z,4.35
2019-04-21T08:49:44.277Z,3.33
2019-04-21T08:55:55.410Z,2.80
2019-04-21T08:59:18.954Z,2.60
2019-04-21T09:02:14.581Z,2.90
2019-04-21T09:05:19.169Z,2.70
2019-04-21T09:08:26.092Z,2.62
2019-04-21T09:11:22.604Z,2.67
2019-04-21T09:16:53.325Z,2.60
2019-04-21T09:20:07.848Z,2.80
2019-04-21T09:23:00.758Z,2.85
2019-04-21T09:26:05.714Z,2.95
2019-04-21T09:29:05.673Z,2.50
2019-04-21T09:31:56.291Z,3.02
2019-04-21T09:34:58.073Z,2.80
2019-04-21T09:38:11.228Z,2.47
2019-04-21T09:41:02.719Z,2.60
2019-04-21T09:44:15.162Z,2.52
2019-04-21T09:47:11.015Z,2.87
2019-04-21T09:50:13.475Z,2.67
2019-04-21T09:53:22.734Z,2.90
2019-04-21T09:56:23.778Z,2.67
2019-04-21T09:59:26.202Z,2.37
2019-04-21T10:05:51.968Z,2.40
2019-04-21T10:08:58.543Z,2.47
2019-04-21T10:11:57.040Z,2.57
2019-04-21T10:14:57.825Z,2.50
2019-04-21T10:18:03.590Z,2.50
2019-04-21T10:21:05.513Z,2.40
2019-04-21T10:24:08.273Z,2.33
2019-04-21T10:27:12.193Z,2.40
2019-04-21T10:30:13.935Z,2.30
2019-04-21T10:33:14.946Z,2.00
2019-04-21T10:36:17.124Z,2.17
2019-04-21T10:39:19.709Z,2.33
2019-04-21T10:42:21.435Z,2.73
2019-04-21T10:45:23.076Z,2.63
2019-04-21T10:48:25.181Z,2.33
2019-04-21T10:51:26.674Z,2.70
2019-04-21T10:54:42.054Z,2.33
2019-04-21T10:57:32.668Z,2.30
2019-04-21T11:00:34.362Z,2.77
2019-04-21T11:03:36.961Z,2.80
2019-04-21T11:06:39.195Z,2.37
2019-04-21T11:09:42.235Z,2.63
2019-04-21T11:12:44.611Z,2.70
2019-04-21T11:15:45.510Z,2.97
2019-04-21T11:18:46.386Z,2.53
2019-04-21T11:21:47.449Z,2.57
2019-04-21T11:24:49.100Z,2.73
2019-04-21T11:27:51.191Z,2.83
2019-04-21T11:30:53.071Z,2.57
2019-04-21T11:33:55.386Z,2.50
2019-04-21T11:36:56.407Z,2.83
2019-04-21T11:40:04.993Z,2.67
2019-04-21T11:43:01.958Z,2.83
2019-04-21T11:46:04.526Z,3.00
2019-04-21T11:49:06.354Z,2.60
2019-04-21T11:52:07.088Z,2.53
2019-04-21T11:55:08.980Z,2.83
2019-04-21T11:58:09.985Z,2.70
2019-04-21T12:03:55.616Z,2.60
2019-04-21T12:06:57.897Z,3.03
2019-04-21T12:09:59.670Z,2.67
2019-04-21T12:13:01.657Z,3.10
2019-04-21T12:16:03.282Z,3.10
2019-04-21T12:19:05.116Z,3.13
2019-04-21T12:24:51.212Z,2.87
2019-04-21T12:27:54.097Z,2.40
2019-04-21T12:30:55.964Z,2.40
2019-04-21T12:33:58.695Z,2.70
2019-04-21T12:37:01.201Z,2.47
2019-04-21T12:40:03.262Z,3.07
2019-04-21T12:43:04.429Z,2.97
2019-04-21T12:46:05.626Z,3.00
2019-04-21T12:49:07.529Z,2.97
2019-04-21T12:52:09.363Z,2.60
2019-04-21T12:55:11.407Z,3.10
2019-04-21T12:58:13.149Z,3.20
2019-04-21T13:01:14.696Z,2.80
2019-04-21T13:04:15.701Z,2.97
2019-04-21T13:07:17.404Z,2.80
2019-04-21T13:10:18.198Z,3.37
2019-04-21T13:13:19.826Z,3.30
2019-04-21T13:16:21.240Z,2.67
2019-04-21T13:22:06.028Z,2.77
2019-04-21T13:27:52.310Z,2.80
2019-04-21T13:30:54.034Z,2.77
2019-04-21T13:33:55.762Z,3.00
2019-04-21T13:36:57.360Z,2.80
2019-04-21T13:40:34.553Z,2.83
2019-04-21T13:43:21.143Z,2.50
2019-04-21T13:46:22.822Z,2.63
2019-04-21T13:49:23.539Z,2.70
2019-04-21T13:52:24.807Z,2.87
2019-04-21T13:55:25.778Z,2.60
2019-04-21T13:58:28.593Z,2.50
2019-04-21T14:01:29.906Z,2.53
2019-04-21T14:04:31.513Z,2.37
2019-04-21T14:07:32.346Z,2.97
2019-04-21T14:10:33.481Z,2.90
2019-04-21T14:13:22.639Z,2.90
2019-04-21T14:16:32.047Z,2.83
2019-04-21T14:19:35.079Z,2.70
2019-04-21T14:22:37.981Z,2.70
2019-04-21T14:25:39.582Z,2.87
2019-04-21T14:28:41.207Z,2.70
2019-04-21T14:31:42.491Z,2.70
2019-04-21T14:34:44.088Z,2.87
2019-04-21T14:37:46.700Z,2.80
2019-04-21T14:40:48.206Z,2.80
2019-04-21T14:43:50.099Z,3.50
2019-04-21T14:47:11.224Z,2.87
2019-04-21T14:50:32.455Z,2.90
2019-04-21T14:53:53.906Z,2.93
2019-04-21T14:56:55.581Z,2.77
2019-04-21T14:59:57.344Z,2.90
2019-04-21T15:02:58.785Z,3.30
2019-04-21T15:06:01.093Z,3.33
2019-04-21T15:09:03.203Z,3.40
2019-04-21T15:12:03.784Z,3.60
2019-04-21T15:15:05.692Z,3.00
2019-04-21T15:18:08.121Z,3.40
2019-04-21T15:21:09.129Z,3.00
2019-04-21T15:24:12.095Z,3.50
2019-04-21T15:27:14.445Z,3.30
2019-04-21T15:30:16.513Z,3.63
2019-04-21T15:33:18.227Z,3.60
2019-04-21T15:36:19.173Z,2.87
2019-04-21T15:39:21.451Z,3.30
2019-04-21T15:42:22.103Z,3.30
2019-04-21T15:45:24.218Z,2.90
2019-04-21T15:48:26.623Z,3.27
2019-04-21T15:51:29.641Z,2.90
2019-04-21T15:54:30.755Z,3.23
2019-04-21T15:57:21.708Z,3.10
2019-04-21T16:00:42.715Z,3.10
2019-04-21T16:03:44.756Z,2.80
2019-04-21T16:06:47.719Z,3.30
2019-04-21T16:09:50.019Z,3.07
2019-04-21T16:12:52.051Z,3.13
2019-04-21T16:15:54.567Z,3.03
2019-04-21T16:18:56.308Z,3.30
2019-04-21T16:21:58.948Z,3.63
2019-04-21T16:25:00.887Z,3.47
2019-04-21T16:28:03.458Z,4.00
2019-04-21T16:31:04.944Z,4.00
2019-04-21T16:34:05.598Z,4.13
2019-04-21T16:37:07.660Z,3.20
2019-04-21T16:40:09.521Z,3.40
2019-04-21T16:43:10.290Z,3.23
2019-04-21T16:46:11.518Z,3.47
2019-04-21T16:49:13.646Z,3.17
2019-04-21T16:52:20.385Z,3.00
2019-04-21T16:55:26.781Z,3.00
2019-04-21T16:58:32.767Z,2.92
2019-04-21T17:01:34.476Z,3.00
2019-04-21T17:04:36.295Z,3.00
2019-04-21T17:07:38.718Z,3.10
2019-04-21T17:10:55.414Z,2.98
2019-04-21T17:13:32.122Z,3.27
2019-04-21T17:17:14.191Z,3.22
2019-04-21T17:19:38.181Z,3.70
2019-04-21T17:22:43.843Z,4.30
2019-04-21T17:25:45.740Z,4.42
2019-04-21T17:28:48.783Z,3.45
2019-04-21T17:31:50.090Z,3.12
2019-04-21T17:34:52.112Z,3.70
2019-04-21T17:37:54.346Z,3.37
2019-04-21T17:40:59.601Z,3.25
2019-04-21T17:43:58.376Z,3.72
2019-04-21T17:47:05.210Z,3.50
2019-04-21T17:50:23.392Z,3.55
2019-04-21T17:53:35.743Z,2.92
2019-04-21T17:57:00.399Z,2.95
2019-04-21T18:02:58.861Z,2.80
2019-04-21T18:05:58.461Z,2.50
2019-04-21T18:09:09.186Z,2.27
2019-04-21T18:12:07.704Z,2.47
2019-04-21T18:14:59.841Z,2.33
2019-04-21T18:17:54.561Z,2.42
2019-04-21T18:21:00.853Z,2.30
2019-04-21T18:24:10.752Z,2.02
2019-04-21T18:27:08.983Z,2.90
2019-04-21T18:30:10.614Z,2.45
2019-04-21T18:33:20.846Z,2.37
2019-04-21T18:36:21.331Z,2.20
2019-04-21T18:39:38.081Z,2.30
2019-04-21T18:46:20.515Z,2.40
2019-04-21T18:49:06.499Z,2.40
2019-04-21T18:52:17.096Z,2.60
2019-04-21T18:55:20.264Z,2.20
2019-04-21T18:58:15.173Z,2.30
2019-04-21T19:01:22.425Z,2.52
2019-04-21T19:04:22.525Z,2.62
2019-04-21T19:07:37.861Z,2.00
2019-04-21T19:10:52.287Z,2.12
2019-04-21T19:14:20.839Z,2.20
2019-04-21T19:17:33.023Z,2.40
2019-04-21T19:20:12.990Z,2.12
2019-04-21T19:23:11.589Z,2.10
2019-04-21T19:26:37.706Z,2.27
2019-04-21T19:29:24.098Z,2.27
2019-04-21T19:32:33.504Z,2.33
2019-04-21T19:35:07.869Z,2.50
2019-04-21T19:38:13.704Z,2.45
2019-04-21T19:41:28.230Z,2.20
2019-04-21T19:44:34.696Z,2.55
2019-04-21T19:47:42.248Z,2.22
2019-04-21T19:50:40.495Z,2.10
2019-04-21T19:53:40.121Z,2.40
2019-04-21T19:56:27.972Z,2.40
2019-04-21T19:59:36.655Z,2.20
2019-04-21T20:02:34.291Z,2.25
2019-04-21T20:05:43.535Z,2.90
2019-04-21T20:08:59.101Z,2.02
2019-04-21T20:11:58.174Z,2.40
2019-04-21T20:15:16.702Z,2.27
2019-04-21T20:17:58.854Z,2.60
2019-04-21T20:20:50.213Z,2.40
2019-04-21T20:23:51.765Z,2.30
2019-04-21T20:27:03.007Z,2.30
2019-04-21T20:33:48.689Z,2.40
2019-04-21T20:36:41.814Z,3.03
2019-04-21T20:39:26.571Z,2.40
2019-04-21T20:42:39.046Z,2.77
2019-04-21T20:45:46.063Z,2.83
2019-04-21T20:48:42.109Z,2.97
2019-04-21T20:51:54.322Z,2.70
2019-04-21T20:54:47.920Z,2.93
2019-04-21T20:57:49.008Z,3.10
2019-04-21T21:01:08.992Z,3.00
2019-04-21T21:03:51.777Z,3.10
2019-04-21T21:07:06.761Z,2.80
2019-04-21T21:10:04.482Z,3.10
2019-04-21T21:13:14.246Z,2.87
2019-04-21T21:16:17.966Z,2.70
2019-04-21T21:19:26.758Z,2.80
2019-04-21T21:22:09.780Z,2.87
2019-04-21T21:25:18.918Z,2.70
2019-04-21T21:28:10.224Z,2.97
2019-04-21T21:31:24.881Z,2.60
2019-04-21T21:34:29.422Z,2.93
2019-04-21T21:37:33.698Z,2.73
2019-04-21T21:40:30.614Z,2.93
2019-04-21T21:43:19.931Z,2.90
2019-04-21T21:46:37.224Z,2.70
2019-04-21T21:49:35.210Z,2.80
2019-04-21T21:52:41.132Z,2.70
2019-04-21T21:55:27.778Z,2.90
2019-04-21T21:58:34.878Z,3.00
2019-04-21T22:01:37.993Z,3.10
2019-04-21T22:04:36.048Z,2.90
2019-04-21T22:07:37.118Z,2.87
2019-04-21T22:10:39.175Z,2.50
2019-04-21T22:13:49.042Z,2.90
2019-04-21T22:16:57.512Z,2.83
2019-04-21T22:22:56.145Z,3.20
2019-04-21T22:25:51.307Z,2.50
2019-04-21T22:28:53.822Z,2.90
2019-04-21T22:32:04.162Z,3.00
2019-04-21T22:35:02.014Z,2.70
2019-04-21T22:38:14.960Z,2.67
2019-04-21T22:41:16.158Z,2.77
2019-04-21T22:44:08.165Z,2.63
2019-04-21T22:47:15.418Z,3.27
2019-04-21T22:50:10.959Z,2.57
2019-04-21T22:53:13.520Z,2.73
2019-04-21T22:56:21.748Z,2.90
2019-04-21T22:59:21.008Z,2.50
2019-04-21T23:02:25.972Z,2.53
2019-04-21T23:05:28.312Z,2.43
2019-04-21T23:08:31.754Z,2.77
2019-04-21T23:11:34.706Z,2.90
2019-04-21T23:14:33.886Z,2.40
2019-04-21T23:17:53.262Z,2.43
2019-04-21T23:20:55.123Z,2.70
2019-04-21T23:23:57.204Z,3.00
2019-04-21T23:26:52.081Z,2.60
2019-04-21T23:30:09.754Z,2.53
2019-04-21T23:32:51.402Z,2.87
2019-04-21T23:35:49.307Z,2.70
2019-04-21T23:38:52.881Z,2.50
2019-04-21T23:41:53.929Z,2.30
2019-04-21T23:44:58.058Z,2.53
2019-04-21T23:48:10.843Z,3.03
2019-04-21T23:51:13.899Z,2.57
2019-04-21T23:54:02.597Z,3.07
2019-04-21T23:57:12.868Z,2.70
